Warning: Javascript must be enabled to use all the features on this page!


Page Loading - Please Wait...

Click to hideNews Bulletins

Peak Streamflow for the Nation

USGS 07124410 PURGATOIRE RIVER BELOW TRINIDAD LAKE, CO.

Las Animas County, Colorado
Hydrologic Unit Code 11020010
Latitude  37°08'38", Longitude 104°32'50" NAD27
Drainage area 673  square miles
Gage datum 6,073.64 feet above NGVD29
Output formats
Table
Graph
Tab-separated file
peakfq (watstore) format
Reselect output format
Water
Year
Date Gage
Height
(feet)
Stream-
flow
(cfs)
1977 1977-08-19 6.21 2706
1978 1978-08-23 6.36 3076
1979 1979-08-20 6.80 4036
1980 1979-10-17 7.58 7126
1981 1981-09-10 7.89 9636
1982 1982-09-21 7.12 5186
1983 1983-06-07 7.83 9216
1984 1984-05-23 6.702 3856
1985 1985-05-14 6.89 4136
1986 1986-06-25 6.62 3496
1987 1987-07-17 6.49 3096
1988 1988-08-24 6.52 3256
1989 1989-05-04 6.34 2916
1990 1990-08-03 7.85 9356
1991 1991-08-06 7.64 7886
1992 1992-08-20 7.23 5466
1993 1993-05-29 7.76 8726
1994 1994-05-14 7.86 9526
1995 1995-07-17 6.63 3446
1996 1996-05-24 6.55 3306
1997 1997-05-19 7.27 5546
1998 1998-07-28 7.02 4526
1999 1999-08-03 7.85 9286
2000 2000-06-21 6.37 2896
2001 2001-08-13 6.42 2936
2002 2002-09-20 5.94 1876
2003 2003-09-05 7.01 4586
2004 2004-08-06 8.01 1,2606
2005 2005-05-31 7.76 8726
2006 2006-08-02 6.68 3626
2007 2007-06-04 6.78 3876
2008 2008-09-02 7.47 6706
2009 2009-07-29 6.63 3516
2010 2010-08-10 7.29 5656
2011 2011-02-22 6.15 2276
2012 2012-05-16 6.11 2296
2013 2013-07-17 7.61 7396
2014 2014-06-03 6.84 4206
2015 2015-06-15 7.07 5056
2016 2016-06-07 6.68 3756
2017 2017-05-11   2,0402,6
2018 2017-10-10 6.57 3466
2019 2019-06-26 7.13 5286
2020 2020-07-28 5.99 2086
2021 2021-05-25 7.88 1,1706
2022 2022-08-01 6.10 2166
?
  Peak Gage-Height Qualification Codes.
?
  Peak Streamflow Qualification Codes.